createdAt,value
2023-01-13T00:01:58.292Z,9.43
2023-01-13T00:07:06.876Z,9.09
2023-01-13T00:12:15.525Z,8.95
2023-01-13T00:17:23.723Z,8.63
2023-01-13T00:22:32.311Z,8.47
2023-01-13T00:27:40.607Z,8.35
2023-01-13T00:32:49.307Z,8.37
2023-01-13T00:37:57.571Z,8.87
2023-01-13T00:43:06.092Z,9.00
2023-01-13T00:48:14.567Z,9.08
2023-01-13T00:53:23.113Z,8.91
2023-01-13T00:58:31.470Z,8.58
2023-01-13T01:03:40.257Z,8.32
2023-01-13T01:08:48.743Z,9.13
2023-01-13T01:13:57.705Z,9.14
2023-01-13T01:19:06.346Z,8.94
2023-01-13T01:24:14.856Z,9.47
2023-01-13T01:29:23.300Z,9.72
2023-01-13T01:34:32.016Z,9.96
2023-01-13T01:39:40.359Z,10.20
2023-01-13T01:44:50.635Z,9.85
2023-01-13T01:49:56.975Z,9.79
2023-01-13T01:55:05.632Z,9.18
2023-01-13T02:00:13.977Z,9.19
2023-01-13T02:05:22.670Z,9.14
2023-01-13T02:10:30.991Z,9.92
2023-01-13T02:15:39.764Z,9.32
2023-01-13T02:20:48.251Z,10.26
2023-01-13T02:25:56.872Z,10.32
2023-01-13T02:31:05.414Z,10.56
2023-01-13T02:36:13.876Z,11.10
2023-01-13T02:41:21.989Z,10.66
2023-01-13T02:46:30.740Z,11.05
2023-01-13T02:51:39.231Z,10.91
2023-01-13T02:56:48.254Z,12.10
2023-01-13T03:01:57.144Z,11.21
2023-01-13T03:07:05.781Z,11.53
2023-01-13T03:12:14.145Z,10.47
2023-01-13T03:17:22.757Z,10.40
2023-01-13T03:22:30.755Z,10.60
2023-01-13T03:27:39.368Z,10.49
2023-01-13T03:32:47.789Z,10.42
2023-01-13T03:37:57.049Z,11.07
2023-01-13T03:43:05.388Z,10.30
2023-01-13T03:48:14.113Z,11.46
2023-01-13T03:53:22.526Z,10.84
2023-01-13T03:58:31.042Z,10.99
2023-01-13T04:03:39.427Z,12.35
2023-01-13T04:08:48.135Z,11.59
2023-01-13T04:13:56.511Z,11.67
2023-01-13T04:19:05.195Z,11.38
2023-01-13T04:24:13.425Z,11.85
2023-01-13T04:29:22.024Z,11.64
2023-01-13T04:34:30.296Z,12.28
2023-01-13T04:39:39.001Z,11.08
2023-01-13T04:44:47.533Z,11.58
2023-01-13T04:49:56.888Z,11.27
2023-01-13T04:55:05.201Z,11.56
2023-01-13T05:00:14.204Z,11.50
2023-01-13T05:05:22.533Z,11.46
2023-01-13T05:10:31.075Z,10.53
2023-01-13T05:15:39.457Z,10.84
2023-01-13T05:20:48.720Z,10.47
2023-01-13T05:25:57.657Z,10.82
2023-01-13T05:31:06.360Z,11.22
2023-01-13T05:36:14.792Z,11.46
2023-01-13T05:41:23.515Z,11.44
2023-01-13T05:46:31.685Z,11.03
2023-01-13T05:51:40.412Z,11.12
2023-01-13T05:56:48.944Z,10.83
2023-01-13T06:01:57.690Z,11.12
2023-01-13T06:07:05.852Z,11.62
2023-01-13T06:12:14.538Z,13.81
2023-01-13T06:17:23.259Z,10.94
2023-01-13T06:22:31.619Z,10.83
2023-01-13T06:27:40.043Z,11.50
2023-01-13T06:32:48.538Z,11.70
2023-01-13T06:37:56.907Z,11.99
2023-01-13T06:43:05.598Z,11.91
2023-01-13T06:48:13.890Z,12.11
2023-01-13T06:53:22.524Z,11.62
2023-01-13T06:58:31.122Z,11.99
2023-01-13T07:03:39.876Z,12.03
2023-01-13T07:08:48.849Z,13.52
2023-01-13T07:13:58.259Z,13.42
2023-01-13T07:19:06.684Z,13.40
2023-01-13T07:24:16.148Z,13.93
2023-01-13T07:29:24.661Z,13.45
2023-01-13T07:34:33.419Z,14.21
2023-01-13T07:39:42.007Z,14.11
2023-01-13T07:44:51.307Z,14.17
2023-01-13T07:50:01.013Z,14.17
2023-01-13T07:55:10.279Z,13.95
2023-01-13T08:00:19.404Z,13.77
2023-01-13T08:05:28.582Z,14.70
2023-01-13T08:10:37.840Z,14.87
2023-01-13T08:15:47.118Z,14.52
2023-01-13T08:20:56.229Z,14.83
2023-01-13T08:26:05.643Z,14.71
2023-01-13T08:31:14.221Z,15.94
2023-01-13T08:36:23.180Z,15.91
2023-01-13T08:41:32.408Z,17.86
2023-01-13T08:46:41.487Z,16.33
2023-01-13T08:51:50.192Z,16.07
2023-01-13T08:56:59.429Z,16.69
2023-01-13T09:02:08.677Z,16.60
2023-01-13T09:07:17.452Z,16.27
2023-01-13T09:12:26.078Z,16.50
2023-01-13T09:17:34.908Z,16.51
2023-01-13T09:22:43.363Z,17.31
2023-01-13T09:27:52.467Z,17.69
2023-01-13T09:33:01.219Z,18.98
2023-01-13T09:38:10.651Z,19.12
2023-01-13T09:43:19.408Z,18.91
2023-01-13T09:48:28.385Z,17.67
2023-01-13T09:53:36.937Z,17.20
2023-01-13T09:58:46.283Z,17.47
2023-01-13T10:03:54.945Z,18.66
2023-01-13T10:09:04.555Z,18.62
2023-01-13T10:14:12.908Z,17.99
2023-01-13T10:19:22.522Z,18.10
2023-01-13T10:24:31.828Z,18.38
2023-01-13T10:29:41.447Z,17.63
2023-01-13T10:34:51.027Z,17.71
2023-01-13T10:40:00.203Z,17.68
2023-01-13T10:45:08.516Z,16.96
2023-01-13T10:50:17.341Z,17.68
2023-01-13T10:55:25.591Z,17.44
2023-01-13T11:00:34.338Z,18.26
2023-01-13T11:05:42.617Z,17.29
2023-01-13T11:10:51.812Z,17.94
2023-01-13T11:16:00.704Z,18.16
2023-01-13T11:21:09.825Z,17.22
2023-01-13T11:26:19.017Z,17.94
2023-01-13T11:31:28.079Z,18.85
2023-01-13T11:36:36.292Z,18.97
2023-01-13T11:41:44.979Z,18.12
2023-01-13T11:46:53.357Z,18.35
2023-01-13T11:52:02.173Z,18.09
2023-01-13T11:57:11.318Z,18.02
2023-01-13T12:02:20.193Z,18.57
2023-01-13T12:07:28.225Z,17.51
2023-01-13T12:12:36.881Z,17.72
2023-01-13T12:17:45.252Z,17.55
2023-01-13T12:22:54.617Z,16.80
2023-01-13T12:28:02.794Z,17.71
2023-01-13T12:33:11.610Z,18.79
2023-01-13T12:38:20.428Z,18.61
2023-01-13T12:43:29.660Z,18.28
2023-01-13T12:48:38.701Z,18.74
2023-01-13T12:53:47.835Z,19.16
2023-01-13T12:58:56.250Z,19.11
2023-01-13T13:04:04.899Z,19.44
2023-01-13T13:09:13.177Z,19.17
2023-01-13T13:14:22.233Z,19.80
2023-01-13T13:19:31.813Z,19.22
2023-01-13T13:24:40.854Z,19.31
2023-01-13T13:29:49.537Z,20.33
2023-01-13T13:34:58.657Z,19.85
2023-01-13T13:40:07.282Z,21.20
2023-01-13T13:45:15.870Z,26.61
2023-01-13T13:50:24.458Z,23.47
2023-01-13T13:55:33.341Z,21.01
2023-01-13T14:00:41.684Z,20.43
2023-01-13T14:05:49.980Z,20.76
2023-01-13T14:10:58.380Z,20.24
2023-01-13T14:16:06.968Z,20.06
2023-01-13T14:21:15.438Z,19.64
2023-01-13T14:26:24.094Z,19.59
2023-01-13T14:31:32.430Z,19.96
2023-01-13T14:36:41.683Z,19.95
2023-01-13T14:41:50.163Z,18.86
2023-01-13T14:46:58.661Z,19.30
2023-01-13T14:52:07.121Z,18.62
2023-01-13T14:57:16.077Z,18.75
2023-01-13T15:02:24.571Z,18.58
2023-01-13T15:07:32.915Z,18.17
2023-01-13T15:12:41.014Z,19.19
2023-01-13T15:17:49.873Z,18.93
2023-01-13T15:22:58.283Z,19.14
2023-01-13T15:28:07.155Z,18.87
2023-01-13T15:33:15.662Z,18.36
2023-01-13T15:38:24.400Z,17.85
2023-01-13T15:43:32.773Z,17.97
2023-01-13T15:48:41.321Z,17.83
2023-01-13T15:53:49.071Z,17.97
2023-01-13T15:58:57.657Z,18.19
2023-01-13T16:04:05.959Z,18.41
2023-01-13T16:09:14.676Z,18.69
2023-01-13T16:14:22.899Z,18.23
2023-01-13T16:19:31.403Z,18.57
2023-01-13T16:24:39.895Z,19.98
2023-01-13T16:29:49.204Z,18.62
2023-01-13T16:34:59.200Z,17.56
2023-01-13T16:40:06.028Z,18.43
2023-01-13T16:45:14.153Z,18.70
2023-01-13T16:50:23.468Z,17.92
2023-01-13T16:55:31.165Z,18.59
2023-01-13T17:00:39.668Z,18.82
2023-01-13T17:05:47.896Z,18.85
2023-01-13T17:10:56.634Z,19.50
2023-01-13T17:16:05.267Z,19.11
2023-01-13T17:21:14.072Z,25.43
2023-01-13T17:26:22.829Z,19.79
2023-01-13T17:31:31.870Z,20.24
2023-01-13T17:36:39.909Z,20.12
2023-01-13T17:41:48.852Z,21.33
2023-01-13T17:46:57.771Z,20.05
2023-01-13T17:52:06.114Z,20.04
2023-01-13T17:57:14.357Z,20.08
2023-01-13T18:02:24.314Z,20.52
2023-01-13T18:07:32.592Z,19.83
2023-01-13T18:12:41.512Z,19.88
2023-01-13T18:17:50.006Z,19.91
2023-01-13T18:22:58.698Z,18.86
2023-01-13T18:28:07.547Z,19.75
2023-01-13T18:33:16.692Z,20.72
2023-01-13T18:38:25.933Z,24.35
2023-01-13T18:43:35.095Z,20.49
2023-01-13T18:48:43.520Z,19.88
2023-01-13T18:53:52.135Z,19.81
2023-01-13T18:59:01.478Z,19.73
2023-01-13T19:04:10.169Z,19.95
2023-01-13T19:09:18.312Z,20.84
2023-01-13T19:14:26.974Z,20.40
2023-01-13T19:19:36.499Z,20.56
2023-01-13T19:24:45.577Z,19.86
2023-01-13T19:29:54.526Z,20.39
2023-01-13T19:35:02.878Z,20.55
2023-01-13T19:40:11.367Z,19.73
2023-01-13T19:45:20.431Z,19.90
2023-01-13T19:50:28.804Z,20.77
2023-01-13T19:55:37.537Z,21.57
2023-01-13T20:00:45.637Z,20.83
2023-01-13T20:05:54.272Z,20.36
2023-01-13T20:11:03.160Z,20.96
2023-01-13T20:16:12.484Z,20.81
2023-01-13T20:21:20.518Z,19.30
2023-01-13T20:26:29.516Z,18.56
2023-01-13T20:31:38.218Z,19.16
2023-01-13T20:36:46.889Z,18.94
2023-01-13T20:41:54.958Z,20.27
2023-01-13T20:47:03.705Z,20.06
2023-01-13T20:52:12.223Z,19.40
2023-01-13T20:57:21.018Z,20.19
2023-01-13T21:02:29.400Z,20.07
2023-01-13T21:07:37.919Z,20.98
2023-01-13T21:12:46.221Z,19.98
2023-01-13T21:17:54.822Z,20.24
2023-01-13T21:23:03.542Z,20.85
2023-01-13T21:28:12.019Z,21.11
2023-01-13T21:33:20.440Z,21.41
2023-01-13T21:38:30.360Z,20.64
2023-01-13T21:43:37.140Z,20.03
2023-01-13T21:48:45.900Z,20.18
2023-01-13T21:53:53.920Z,20.60
2023-01-13T21:59:02.589Z,21.32
2023-01-13T22:04:10.992Z,21.13
2023-01-13T22:09:19.489Z,21.73
2023-01-13T22:14:27.814Z,21.51
2023-01-13T22:19:36.332Z,21.41
2023-01-13T22:24:44.476Z,21.65
2023-01-13T22:29:53.087Z,20.98
2023-01-13T22:35:01.310Z,20.80
2023-01-13T22:40:09.699Z,21.00
2023-01-13T22:45:18.585Z,20.63
2023-01-13T22:50:27.804Z,21.56
2023-01-13T22:55:36.138Z,21.38
2023-01-13T23:00:45.332Z,21.08
2023-01-13T23:05:53.477Z,20.34
2023-01-13T23:11:02.402Z,21.70
2023-01-13T23:16:10.927Z,21.30
2023-01-13T23:21:19.765Z,21.28
2023-01-13T23:26:28.216Z,21.84
2023-01-13T23:31:37.058Z,21.56
2023-01-13T23:36:45.274Z,21.90
2023-01-13T23:41:53.776Z,22.34
2023-01-13T23:47:04.948Z,22.13
2023-01-13T23:52:03.603Z,21.51
2023-01-13T23:57:12.003Z,21.64
